Main page
METAR-TAF:

METAR-TAF

Airports :

Pohnpei, Micronesia

Pohnpei International Airport

latitude: 06-59N, longitude: 158-12E, elevation: 2 m

Current weather observation

The report was made 55 minutes ago, at 01:50 UTC
Wind 10 kt from the East
Temperature 31°C
Humidity 71%
Pressure 1012 hPa
Visibility: 24.1 km
Broken clouds at a height of 1700 ft, Towering cumulus.
Broken clouds at a height of 13000 ft
Overcast at a height of 30000 ft

METAR: PTPN 300150Z 09010KT 15SM BKN017TCU BKN130 OVC300 31/25 A2988 RMK TCU S

Time: 13:45 (02:45 UTC)

Forecast

The report was made 3 hours and 13 minutes ago, at 23:32 UTC
Forecast valid from 30 at 00 UTC to 30 at 24 UTC
Wind 11 kt from the East/Northeast
Visibility: 10 km
Scattered clouds at a height of 1700 ft
Broken clouds at a height of 13000 ft
showers in vicinity
Temporary
from 30 at 00 UTC to 30 at 02 UTC
Visibility: 8.0 km
Broken clouds at a height of 1600 ft
light rain showers

TAF: PTPN 292332Z 3000/3024 07011KT P6SM VCSH SCT017 BKN130 TEMPO 3000/3002 5SM -SHRA BKN016

Weather observations and forecasts of more than 4000 airports (METAR and TAF reports).

The available stations are represented by yellow and red dots on the map.

Hover mouse over dot to see the name of the station.

Then click to see weather observations and forecasts.

To change the map : click on the green buttons with a black cross to zoom in, on the green button with a dash to zoom out, or on the green arrows for adjacent maps.


METAR-TAF: